createdAt,value
2019-03-24T00:00:45.491Z,14.6
2019-03-24T00:10:44.937Z,13.2
2019-03-24T00:20:55.697Z,13.1
2019-03-24T00:30:55.193Z,12.2
2019-03-24T00:40:57.362Z,11.9
2019-03-24T00:51:07.866Z,12
2019-03-24T01:01:08.621Z,11.7
2019-03-24T01:11:08.030Z,11.1
2019-03-24T01:21:18.845Z,11.8
2019-03-24T01:31:18.257Z,12.2
2019-03-24T01:41:16.294Z,18.6
2019-03-24T01:51:15.760Z,11.3
2019-03-24T02:01:14.113Z,16
2019-03-24T02:11:13.646Z,12.5
2019-03-24T02:21:13.177Z,11.3
2019-03-24T02:31:12.831Z,11.2
2019-03-24T02:41:12.592Z,11.6
2019-03-24T02:51:12.401Z,11.4
2019-03-24T03:01:12.190Z,10.2
2019-03-24T03:11:11.863Z,11
2019-03-24T03:21:11.574Z,12.2
2019-03-24T03:31:11.319Z,10.4
2019-03-24T03:41:11.390Z,11.7
2019-03-24T03:51:24.155Z,10.9
2019-03-24T04:01:23.847Z,12
2019-03-24T04:11:22.234Z,16.6
2019-03-24T04:21:38.545Z,10.9
2019-03-24T04:31:38.339Z,11.5
2019-03-24T04:41:37.992Z,10.4
2019-03-24T04:51:47.566Z,10.3
2019-03-24T05:01:47.175Z,9.2
2019-03-24T05:11:45.201Z,16.3
2019-03-24T05:21:44.601Z,9.9
2019-03-24T05:31:44.048Z,10.8
2019-03-24T05:41:43.483Z,9.9
2019-03-24T05:51:43.046Z,9.9
2019-03-24T06:01:41.171Z,16
2019-03-24T06:11:40.617Z,9
2019-03-24T06:21:40.131Z,8.7
2019-03-24T06:31:39.675Z,9.2
2019-03-24T06:41:39.124Z,9
2019-03-24T06:51:38.604Z,8.4
2019-03-24T07:01:38.011Z,7.9
2019-03-24T07:11:45.020Z,9.8
2019-03-24T07:21:47.574Z,9.4
2019-03-24T07:31:47.128Z,7
2019-03-24T07:41:48.884Z,7.6
2019-03-24T07:51:50.392Z,6.8
2019-03-24T08:01:49.848Z,6
2019-03-24T08:11:49.388Z,6.5
2019-03-24T08:22:04.080Z,5.9
2019-03-24T08:32:03.611Z,7.3
2019-03-24T08:42:03.257Z,12.6
2019-03-24T08:52:14.467Z,11.6
2019-03-24T09:02:17.094Z,11.3
2019-03-24T09:12:21.329Z,14.2
2019-03-24T09:22:24.019Z,16.5
2019-03-24T09:32:23.673Z,13.2
2019-03-24T09:42:23.699Z,13.5
2019-03-24T09:52:34.385Z,14.2
2019-03-24T10:02:36.876Z,15.2
2019-03-24T10:12:39.117Z,19.5
2019-03-24T10:22:45.328Z,16
2019-03-24T10:32:45.046Z,16.7
2019-03-24T10:42:44.590Z,20.2
2019-03-24T10:52:56.145Z,20.3
2019-03-24T11:02:55.761Z,19
2019-03-24T11:12:56.298Z,19
2019-03-24T11:23:06.906Z,23.7
2019-03-24T11:33:06.354Z,24
2019-03-24T11:43:07.686Z,22.7
2019-03-24T11:53:20.147Z,24.1
2019-03-24T12:03:25.889Z,19.9
2019-03-24T12:13:26.210Z,18.3
2019-03-24T12:23:28.164Z,19
2019-03-24T12:33:27.829Z,19
2019-03-24T12:43:29.177Z,21
2019-03-24T12:53:43.689Z,24.9
2019-03-24T13:03:43.389Z,22.3
2019-03-24T13:13:43.242Z,20.4
2019-03-24T13:24:09.544Z,19.6
2019-03-24T13:34:09.289Z,27
2019-03-24T13:44:08.934Z,24.5
2019-03-24T13:54:08.686Z,22.5
2019-03-24T14:04:08.177Z,20.6
2019-03-24T14:14:07.736Z,20.5
2019-03-24T14:24:15.002Z,15.5
2019-03-24T14:34:14.742Z,13.6
2019-03-24T14:44:14.920Z,11.1
2019-03-24T14:54:25.821Z,11.4
2019-03-24T15:04:25.332Z,11.1
2019-03-24T15:14:27.577Z,11.2
2019-03-24T15:24:36.898Z,11.8
2019-03-24T15:34:36.445Z,13.1
2019-03-24T15:44:39.675Z,16.4
2019-03-24T15:54:48.177Z,15
2019-03-24T16:04:47.624Z,15
2019-03-24T16:14:47.669Z,13.5
2019-03-24T16:25:01.766Z,12.1
2019-03-24T16:35:04.666Z,11.6
2019-03-24T16:45:04.886Z,12.8
2019-03-24T16:55:12.513Z,14.7
2019-03-24T17:05:15.411Z,13.2
2019-03-24T17:15:15.398Z,16.4
2019-03-24T17:25:21.258Z,14.2
2019-03-24T17:35:21.231Z,12.4
2019-03-24T17:45:21.681Z,16.3
2019-03-24T17:55:31.904Z,14.7
2019-03-24T18:05:44.830Z,13.1
2019-03-24T18:15:46.318Z,13.6
2019-03-24T18:25:47.485Z,15.9
2019-03-24T18:35:48.233Z,14.6
2019-03-24T18:45:48.377Z,31.4
2019-03-24T18:55:53.909Z,17
2019-03-24T19:05:56.843Z,14.6
2019-03-24T19:15:59.313Z,20.2
2019-03-24T19:26:05.265Z,26.3
2019-03-24T19:36:06.536Z,32
2019-03-24T19:46:06.283Z,39.4
2019-03-24T19:56:16.101Z,40.8
2019-03-24T20:06:17.963Z,43.1
2019-03-24T20:16:22.416Z,43.1
2019-03-24T20:26:27.955Z,43.6
2019-03-24T20:36:27.502Z,43.9
2019-03-24T20:46:26.988Z,44.6
2019-03-24T20:56:49.317Z,45.6
2019-03-24T21:06:54.159Z,45.5
2019-03-24T21:16:56.666Z,43.3
2019-03-24T21:27:00.936Z,43.2
2019-03-24T21:37:00.287Z,42.8
2019-03-24T21:46:59.914Z,51
2019-03-24T21:57:11.836Z,42.8
2019-03-24T22:07:11.822Z,43.7
2019-03-24T22:17:11.348Z,42.6
2019-03-24T22:27:23.572Z,42.6
2019-03-24T22:37:24.264Z,41.5
2019-03-24T22:47:24.013Z,45
2019-03-24T22:57:38.126Z,43.6
2019-03-24T23:07:36.791Z,51
2019-03-24T23:17:39.725Z,42.5
2019-03-24T23:27:46.957Z,41
2019-03-24T23:37:46.780Z,40.6
2019-03-24T23:47:46.249Z,43.1
2019-03-24T23:57:58.291Z,41
